Terminal Aerodrome Forecast
Issued by NWS

Home | Current Version | Previous Version | Text Only | Print | Product List | Glossary On
Versions: 1 2 3 4 5 6 7 8 9 10 11 12 13 14 15 16 17 18 19
000
FTUS43 KICT 160719 AAA
TAFCNU
TAF AMD
KCNU 160719Z 1607/1706 34012KT P6SM SCT040
      TEMPO 1607/1609 -SN BKN040
     FM160900 34012KT P6SM SCT070
     FM162200 32009KT P6SM SCT200=

USA.gov is the U.S. government's official web portal to all federal, state and local government web resources and services.